Karelia II — UFMR — position and weather

sailwx.info

Track history (hours):
 
Tides and Currents Weather Stations Pressure Air Temp Water Temp Dewpoint Dewpoint Depression Visibility Wind Speed Wind Dir Waves Ship Positions

Karelia II

Last reported at 2017-Apr-12 14:20 UTC. Time now 2017-Apr-29 17:23 UTC.
Position N 70°41' E 020°26'.
Warning: this ship's position is 17 days out of date.

Length 60 m; draft 7.7 m.

Type: Fishing. MMSI: 273425330.

Date/timePositionNaut miles runAvg speedWind from/ knotsBaromVisibWave heightAir tempDewpointWater temp
2017-Apr-12 14:20N 70°41' E 020°26'910.3
2017-Apr-12 13:30N 70°33' E 020°30'510.2
2017-Apr-12 13:00N 70°27' E 020°30'510.6
2017-Apr-12 12:30N 70°22' E 020°27'510.7
2017-Apr-12 12:00N 70°17' E 020°24'511.1
2017-Apr-12 11:30N 70°12' E 020°19'611.2
2017-Apr-12 11:01N 70°07' E 020°13'611.0
2017-Apr-12 10:30N 70°02' E 020°05'511.1
2017-Apr-12 10:00N 69°57' E 019°56'611.2
2017-Apr-12 09:30N 69°52' E 019°47'510.9
2017-Apr-12 09:00N 69°50' E 019°34'611.4
2017-Apr-12 08:30N 69°47' E 019°18'611.2
2017-Apr-12 08:00N 69°45' E 019°04'4 8.5
2017-Apr-12 07:30N 69°41' E 018°60'0 0.0
2017-Apr-12 07:00N 69°41' E 018°60'2 3.4
2017-Apr-12 06:31N 69°42' E 019°02'3 6.4
2017-Apr-12 06:00N 69°45' E 019°04'3 6.5
2017-Apr-12 05:30N 69°47' E 019°13'3 6.7
2017-Apr-12 05:01N 69°48' E 019°22'4 8.2
2017-Apr-12 04:30N 69°49' E 019°33'4 8.4
2017-Apr-12 04:00N 69°51' E 019°44'4 7.6
2017-Apr-12 03:30N 69°54' E 019°51'4 8.2
2017-Apr-12 03:00N 69°58' E 019°57'4 8.2
2017-Apr-12 02:30N 70°01' E 020°04'4 8.5
2017-Apr-12 02:01N 70°05' E 020°10'4 8.5
2017-Apr-12 01:30N 70°09' E 020°15'4 8.5
2017-Apr-12 01:00N 70°13' E 020°20'4 8.4
2017-Apr-12 00:30N 70°17' E 020°24'4 8.5
2017-Apr-12 00:00N 70°21' E 020°27'4 8.5
2017-Apr-11 23:30N 70°25' E 020°29'4 8.4
2017-Apr-11 23:00N 70°29' E 020°31'4 7.8
2017-Apr-11 22:30N 70°33' E 020°26'4 8.2
2017-Apr-11 22:00N 70°35' E 020°17'4 8.6
2017-Apr-11 21:30N 70°37' E 020°04'4 8.6
2017-Apr-11 21:00N 70°38' E 019°52'4 7.9
2017-Apr-11 20:30N 70°37' E 019°40'4 7.7
2017-Apr-11 20:00N 70°35' E 019°29'4 7.7
2017-Apr-11 19:30N 70°34' E 019°19'4 7.5
2017-Apr-11 19:00N 70°32' E 019°08'3 6.4
2017-Apr-11 18:30N 70°31' E 018°59'3 6.1
2017-Apr-11 18:00N 70°30' E 018°50'3 6.1
2017-Apr-11 17:30N 70°29' E 018°42'3 5.8
2017-Apr-11 17:00N 70°28' E 018°34'2 3.4
2017-Apr-11 16:30N 70°29' E 018°39'2 3.4
2017-Apr-11 16:00N 70°29' E 018°44'2 3.6
2017-Apr-11 15:30N 70°30' E 018°49'2 3.5
2017-Apr-11 14:59N 70°30' E 018°54'2 3.2
2017-Apr-11 14:29N 70°31' E 018°58'3 2.9
2017-Apr-11 13:29N 70°32' E 019°06'2 3.9
2017-Apr-11 13:00N 70°33' E 019°11'1 2.9
2017-Apr-11 12:30N 70°34' E 019°09'0 0.6
2017-Apr-11 12:00N 70°34' E 019°08'0 0.6
2017-Apr-11 11:30N 70°34' E 019°07'0 0.5
2017-Apr-11 11:01N 70°34' E 019°06'0 0.4
2017-Apr-11 10:30N 70°34' E 019°06'0 0.5
2017-Apr-11 10:00N 70°34' E 019°05'0 0.4
2017-Apr-11 09:30N 70°34' E 019°05'0 0.3
2017-Apr-11 09:00N 70°34' E 019°05'1 2.0
2017-Apr-11 08:30N 70°34' E 019°07'1 1.8
2017-Apr-11 08:00N 70°33' E 019°06'2 4.0
2017-Apr-11 07:29N 70°32' E 019°02'4 7.4
2017-Apr-11 07:00N 70°34' E 019°11'1 2.9
2017-Apr-11 06:30N 70°35' E 019°14'1 2.3
2017-Apr-11 06:00N 70°35' E 019°10'1 2.6
2017-Apr-11 05:30N 70°35' E 019°06'3 5.2
2017-Apr-11 05:00N 70°35' E 018°58'3 5.8
2017-Apr-11 04:30N 70°35' E 018°50'3 6.8
2017-Apr-11 04:00N 70°35' E 018°60'4 8.0
2017-Apr-11 03:30N 70°35' E 019°12'3 5.2
2017-Apr-11 03:00N 70°36' E 019°05'3 6.4
2017-Apr-11 02:30N 70°38' E 018°56'1 0.9
2017-Apr-11 01:38N 70°38' E 018°57'1 7.8
2017-Apr-11 01:30N 70°38' E 018°60'4 7.5
2017-Apr-11 01:00N 70°37' E 019°10'2 3.1
2017-Apr-11 00:30N 70°36' E 019°07'3 6.7
2017-Apr-11 00:00N 70°37' E 018°57'8 0.6
2017-Apr-10 11:42N 70°32' E 018°41'1 4.3
2017-Apr-10 11:30N 70°32' E 018°43'2 4.1
2017-Apr-10 11:00N 70°33' E 018°48'2 3.6
2017-Apr-10 10:30N 70°33' E 018°53'2 3.9
2017-Apr-10 10:00N 70°32' E 018°59'0 0.9
2017-Apr-10 09:30N 70°32' E 018°60'2 3.7
2017-Apr-10 09:00N 70°33' E 018°54'2 4.5
2017-Apr-10 08:30N 70°33' E 018°48'2 4.5
2017-Apr-10 08:00N 70°31' E 018°43'2 3.8
2017-Apr-10 07:30N 70°30' E 018°46'2 3.4
2017-Apr-10 06:59N 70°29' E 018°51'2 4.0
2017-Apr-10 06:30N 70°31' E 018°55'2 4.1
2017-Apr-10 06:00N 70°32' E 018°59'2 4.1
2017-Apr-10 05:30N 70°33' E 019°05'2 4.1
2017-Apr-10 05:00N 70°33' E 019°11'2 3.9
2017-Apr-10 04:30N 70°32' E 019°05'2 4.1
2017-Apr-10 04:00N 70°31' E 018°60'2 4.2
2017-Apr-10 03:30N 70°30' E 018°54'0 0.8
2017-Apr-10 03:00N 70°30' E 018°55'1 2.5
2017-Apr-10 02:30N 70°32' E 018°55'1 2.6
2017-Apr-10 02:00N 70°33' E 018°52'2 3.8
2017-Apr-10 01:30N 70°31' E 018°48'2 3.7
2017-Apr-10 01:00N 70°30' E 018°50'2 4.1
2017-Apr-10 00:30N 70°30' E 018°56'2 4.0
2017-Apr-10 00:01N 70°31' E 019°01'2 4.0
2017-Apr-09 23:30N 70°32' E 019°07'1 2.7
2017-Apr-09 23:00N 70°33' E 019°08'2 4.3
2017-Apr-09 22:30N 70°32' E 019°02'2 4.3
2017-Apr-09 22:00N 70°33' E 018°56'2 3.9
2017-Apr-09 21:30N 70°32' E 018°51'1 3.0
2017-Apr-09 21:00N 70°31' E 018°47'2 3.8
2017-Apr-09 20:30N 70°31' E 018°53'2 3.8
2017-Apr-09 20:00N 70°31' E 018°59'2 3.9
2017-Apr-09 19:30N 70°32' E 019°03'2 3.2
2017-Apr-09 19:00N 70°33' E 019°08'1 1.4
2017-Apr-09 18:31N 70°33' E 019°07'1 1.0
2017-Apr-09 18:00N 70°33' E 019°06'1 2.4
2017-Apr-09 17:30N 70°34' E 019°08'2 3.0
2017-Apr-09 17:00N 70°32' E 019°08'1 1.5
2017-Apr-09 16:30N 70°33' E 019°09'1 2.1
2017-Apr-09 16:00N 70°32' E 019°07'1 1.8
2017-Apr-09 15:30N 70°33' E 019°09'1 1.4
2017-Apr-09 15:00N 70°32' E 019°07'4 3.7
2017-Apr-09 14:00N 70°33' E 018°57'1 2.1
2017-Apr-09 13:29N 70°34' E 018°59'2 4.1
2017-Apr-09 13:01N 70°34' E 019°05'2 4.3
2017-Apr-09 12:30N 70°33' E 019°11'0 0.4
2017-Apr-09 12:00N 70°33' E 019°10'1 1.2
2017-Apr-09 11:30N 70°33' E 019°12'2 4.8
2017-Apr-09 11:00N 70°33' E 019°05'1 2.8
2017-Apr-09 10:30N 70°33' E 019°00'2 4.3
2017-Apr-09 10:00N 70°33' E 018°54'1 1.5
2017-Apr-09 09:30N 70°33' E 018°52'2 4.4
2017-Apr-09 09:00N 70°33' E 018°58'2 4.0
2017-Apr-09 08:30N 70°32' E 019°04'2 3.6
2017-Apr-09 08:00N 70°31' E 019°01'2 4.4
2017-Apr-09 07:30N 70°30' E 018°54'2 4.5
2017-Apr-09 07:00N 70°30' E 018°47'1 3.0
2017-Apr-09 06:30N 70°30' E 018°52'2 3.3
2017-Apr-09 06:00N 70°31' E 018°56'2 4.2
2017-Apr-09 05:30N 70°31' E 019°02'1 2.5
2017-Apr-09 05:01N 70°33' E 019°00'2 3.8
2017-Apr-09 04:30N 70°33' E 018°55'2 4.1
2017-Apr-09 04:00N 70°33' E 018°49'1 2.5
2017-Apr-09 03:30N 70°33' E 018°52'2 4.3
2017-Apr-09 03:00N 70°33' E 018°59'1 2.2
2017-Apr-09 02:30N 70°33' E 018°56'3 0.7
2017-Apr-08 22:19N 70°36' E 018°51'1 3.8
2017-Apr-08 22:00N 70°35' E 018°54'2 3.0
2017-Apr-08 21:30N 70°34' E 018°53'2 4.2
2017-Apr-08 21:00N 70°34' E 018°47'2 4.3
2017-Apr-08 20:30N 70°32' E 018°42'2 3.0
2017-Apr-08 19:51N 70°31' E 018°38'2 6.5
2017-Apr-08 19:30N 70°32' E 018°44'1 2.6
2017-Apr-08 19:01N 70°32' E 018°47'0 0.8
2017-Apr-08 18:30N 70°33' E 018°47'2 4.4
2017-Apr-08 17:59N 70°31' E 018°42'1 1.3
2017-Apr-08 17:30N 70°32' E 018°43'2 3.9
2017-Apr-08 17:00N 70°33' E 018°48'2 4.6
2017-Apr-08 16:30N 70°33' E 018°54'1 2.6
2017-Apr-08 16:00N 70°32' E 018°52'4 6.9
2017-Apr-08 15:30N 70°32' E 018°42'  
2017-Apr-04 21:15N 69°58' E 016°57'2 7.4
2017-Apr-04 21:00N 69°56' E 016°57'1 2.9
2017-Apr-04 20:30N 69°56' E 017°01'2 4.0
2017-Apr-04 20:00N 69°56' E 017°07'2 4.4
2017-Apr-04 19:29N 69°56' E 017°13'1 1.6
2017-Apr-04 19:00N 69°57' E 017°14'2 3.7
2017-Apr-04 18:30N 69°57' E 017°09'2 3.7
2017-Apr-04 18:00N 69°57' E 017°04'1 2.5
2017-Apr-04 17:31N 69°58' E 017°01'2 4.3
2017-Apr-04 17:00N 69°57' E 017°07'2 4.4
2017-Apr-04 16:30N 69°57' E 017°13'2 4.2
2017-Apr-04 16:00N 69°57' E 017°19'1 2.3
2017-Apr-04 15:30N 69°57' E 017°22'4 7.2
2017-Apr-04 15:00N 69°56' E 017°11'3 5.8
2017-Apr-04 14:30N 69°59' E 017°06'1 0.6
2017-Apr-04 12:45N 69°59' E 017°03'1 4.9
2017-Apr-04 12:30N 69°58' E 017°06'2 4.6
2017-Apr-04 11:59N 69°57' E 017°12'2 3.4
2017-Apr-04 11:30N 69°56' E 017°16'2 4.4
2017-Apr-04 11:00N 69°57' E 017°10'2 4.3
2017-Apr-04 10:30N 69°58' E 017°05'1 2.1
2017-Apr-04 09:59N 69°59' E 017°05'2 4.6
2017-Apr-04 09:30N 69°58' E 017°09'2 4.4
2017-Apr-04 09:00N 69°57' E 017°14'2 3.2
2017-Apr-04 08:31N 69°56' E 017°19'2 4.1
2017-Apr-04 08:00N 69°57' E 017°13'2 3.5
2017-Apr-04 07:30N 69°57' E 017°08'2 4.1
2017-Apr-04 07:00N 69°57' E 017°14'2 3.9
2017-Apr-04 06:30N 69°56' E 017°19'2 3.5
2017-Apr-04 05:59N 69°55' E 017°15'2 3.8
2017-Apr-04 05:30N 69°55' E 017°09'2 3.6
2017-Apr-04 05:00N 69°55' E 017°04'2 3.9
2017-Apr-04 04:30N 69°55' E 016°58'2 3.9
2017-Apr-04 04:00N 69°54' E 016°53'2 4.3
2017-Apr-04 03:30N 69°53' E 016°47'2 2.0
2017-Apr-04 02:27N 69°54' E 016°42'1 2.9
2017-Apr-04 02:00N 69°54' E 016°45'2 4.3
2017-Apr-04 01:30N 69°55' E 016°51'2 4.2
2017-Apr-04 01:00N 69°55' E 016°58'2 4.4
2017-Apr-04 00:30N 69°55' E 017°04'2 4.3
2017-Apr-04 00:00N 69°55' E 017°10'2 3.2
2017-Apr-03 23:30N 69°55' E 017°15'2 4.1
2017-Apr-03 23:00N 69°55' E 017°09'2 4.0
2017-Apr-03 22:30N 69°55' E 017°03'2 3.6
2017-Apr-03 22:00N 69°54' E 016°58'2 4.2
2017-Apr-03 21:30N 69°54' E 017°04'2 4.0
2017-Apr-03 21:00N 69°54' E 017°10'2 3.9
2017-Apr-03 20:30N 69°54' E 017°16'1 3.0
2017-Apr-03 20:01N 69°54' E 017°11'1 2.3
2017-Apr-03 19:29N 69°55' E 017°09'2 3.9
2017-Apr-03 19:00N 69°55' E 017°04'2 4.3
2017-Apr-03 18:30N 69°55' E 016°57'2 3.9
2017-Apr-03 18:00N 69°56' E 016°52'1 0.7
2017-Apr-03 16:42N 69°56' E 016°50'1 4.7
2017-Apr-03 16:29N 69°56' E 016°52'2 4.5
2017-Apr-03 16:00N 69°55' E 016°58'2 3.9
2017-Apr-03 15:30N 69°55' E 017°04'2 3.9
2017-Apr-03 15:00N 69°56' E 017°10'2 4.0
2017-Apr-03 14:30N 69°56' E 017°15'3 2.9
2017-Apr-03 13:30N 69°58' E 017°23'4 8.4
2017-Apr-03 13:00N 69°55' E 017°12'2 3.5
2017-Apr-03 12:30N 69°55' E 017°07'2 4.0
2017-Apr-03 12:00N 69°55' E 017°02'2 4.1
2017-Apr-03 11:30N 69°55' E 016°56'2 4.3
2017-Apr-03 11:00N 69°56' E 016°50'0 0.3
2017-Apr-03 09:38N 69°56' E 016°49'1 3.9
2017-Apr-03 09:30N 69°56' E 016°51'2 4.1
2017-Apr-03 09:00N 69°56' E 016°57'2 4.0
2017-Apr-03 08:30N 69°57' E 017°02'2 4.3
2017-Apr-03 08:00N 69°57' E 017°08'2 4.1
2017-Apr-03 07:29N 69°56' E 017°14'2 3.2
2017-Apr-03 07:01N 69°58' E 017°16'1 2.4
2017-Apr-03 06:30N 69°57' E 017°12'1 1.1
2017-Apr-03 06:00N 69°58' E 017°13'2 3.5
2017-Apr-03 05:30N 69°58' E 017°08'2 4.0
2017-Apr-03 05:00N 69°57' E 017°02'2 3.8
2017-Apr-03 04:30N 69°57' E 017°08'2 4.1
2017-Apr-03 04:01N 69°58' E 017°13'1 2.0
2017-Apr-03 03:30N 69°58' E 017°15'  
Track history (hours):
 
Tides and Currents Weather Stations Pressure Air Temp Water Temp Dewpoint Dewpoint Depression Visibility Wind Speed Wind Dir Waves Ship Positions

Karelia II

Last reported at 2017-Apr-12 14:20 UTC. Time now 2017-Apr-29 17:23 UTC.
Position N 70°41' E 020°26'.
Warning: this ship's position is 17 days out of date.

Length 60 m; draft 7.7 m.

Type: Fishing. MMSI: 273425330.

Date/timePositionNaut miles runAvg speedWind from/ knotsBaromVisibWave heightAir tempDewpointWater temp
2017-Apr-12 14:20N 70°41' E 020°26'910.3
2017-Apr-12 13:30N 70°33' E 020°30'510.2
2017-Apr-12 13:00N 70°27' E 020°30'510.6
2017-Apr-12 12:30N 70°22' E 020°27'510.7
2017-Apr-12 12:00N 70°17' E 020°24'511.1
2017-Apr-12 11:30N 70°12' E 020°19'611.2
2017-Apr-12 11:01N 70°07' E 020°13'611.0
2017-Apr-12 10:30N 70°02' E 020°05'511.1
2017-Apr-12 10:00N 69°57' E 019°56'611.2
2017-Apr-12 09:30N 69°52' E 019°47'510.9
2017-Apr-12 09:00N 69°50' E 019°34'611.4
2017-Apr-12 08:30N 69°47' E 019°18'611.2
2017-Apr-12 08:00N 69°45' E 019°04'4 8.5
2017-Apr-12 07:30N 69°41' E 018°60'0 0.0
2017-Apr-12 07:00N 69°41' E 018°60'2 3.4
2017-Apr-12 06:31N 69°42' E 019°02'3 6.4
2017-Apr-12 06:00N 69°45' E 019°04'3 6.5
2017-Apr-12 05:30N 69°47' E 019°13'3 6.7
2017-Apr-12 05:01N 69°48' E 019°22'4 8.2
2017-Apr-12 04:30N 69°49' E 019°33'4 8.4
2017-Apr-12 04:00N 69°51' E 019°44'4 7.6
2017-Apr-12 03:30N 69°54' E 019°51'4 8.2
2017-Apr-12 03:00N 69°58' E 019°57'4 8.2
2017-Apr-12 02:30N 70°01' E 020°04'4 8.5
2017-Apr-12 02:01N 70°05' E 020°10'4 8.5
2017-Apr-12 01:30N 70°09' E 020°15'4 8.5
2017-Apr-12 01:00N 70°13' E 020°20'4 8.4
2017-Apr-12 00:30N 70°17' E 020°24'4 8.5
2017-Apr-12 00:00N 70°21' E 020°27'4 8.5
2017-Apr-11 23:30N 70°25' E 020°29'4 8.4
2017-Apr-11 23:00N 70°29' E 020°31'4 7.8
2017-Apr-11 22:30N 70°33' E 020°26'4 8.2
2017-Apr-11 22:00N 70°35' E 020°17'4 8.6
2017-Apr-11 21:30N 70°37' E 020°04'4 8.6
2017-Apr-11 21:00N 70°38' E 019°52'4 7.9
2017-Apr-11 20:30N 70°37' E 019°40'4 7.7
2017-Apr-11 20:00N 70°35' E 019°29'4 7.7
2017-Apr-11 19:30N 70°34' E 019°19'4 7.5
2017-Apr-11 19:00N 70°32' E 019°08'3 6.4
2017-Apr-11 18:30N 70°31' E 018°59'3 6.1
2017-Apr-11 18:00N 70°30' E 018°50'3 6.1
2017-Apr-11 17:30N 70°29' E 018°42'3 5.8
2017-Apr-11 17:00N 70°28' E 018°34'2 3.4
2017-Apr-11 16:30N 70°29' E 018°39'2 3.4
2017-Apr-11 16:00N 70°29' E 018°44'2 3.6
2017-Apr-11 15:30N 70°30' E 018°49'2 3.5
2017-Apr-11 14:59N 70°30' E 018°54'2 3.2
2017-Apr-11 14:29N 70°31' E 018°58'3 2.9
2017-Apr-11 13:29N 70°32' E 019°06'2 3.9
2017-Apr-11 13:00N 70°33' E 019°11'1 2.9
2017-Apr-11 12:30N 70°34' E 019°09'0 0.6
2017-Apr-11 12:00N 70°34' E 019°08'0 0.6
2017-Apr-11 11:30N 70°34' E 019°07'0 0.5
2017-Apr-11 11:01N 70°34' E 019°06'0 0.4
2017-Apr-11 10:30N 70°34' E 019°06'0 0.5
2017-Apr-11 10:00N 70°34' E 019°05'0 0.4
2017-Apr-11 09:30N 70°34' E 019°05'0 0.3
2017-Apr-11 09:00N 70°34' E 019°05'1 2.0
2017-Apr-11 08:30N 70°34' E 019°07'1 1.8
2017-Apr-11 08:00N 70°33' E 019°06'2 4.0
2017-Apr-11 07:29N 70°32' E 019°02'4 7.4
2017-Apr-11 07:00N 70°34' E 019°11'1 2.9
2017-Apr-11 06:30N 70°35' E 019°14'1 2.3
2017-Apr-11 06:00N 70°35' E 019°10'1 2.6
2017-Apr-11 05:30N 70°35' E 019°06'3 5.2
2017-Apr-11 05:00N 70°35' E 018°58'3 5.8
2017-Apr-11 04:30N 70°35' E 018°50'3 6.8
2017-Apr-11 04:00N 70°35' E 018°60'4 8.0
2017-Apr-11 03:30N 70°35' E 019°12'3 5.2
2017-Apr-11 03:00N 70°36' E 019°05'3 6.4
2017-Apr-11 02:30N 70°38' E 018°56'1 0.9
2017-Apr-11 01:38N 70°38' E 018°57'1 7.8
2017-Apr-11 01:30N 70°38' E 018°60'4 7.5
2017-Apr-11 01:00N 70°37' E 019°10'2 3.1
2017-Apr-11 00:30N 70°36' E 019°07'3 6.7
2017-Apr-11 00:00N 70°37' E 018°57'8 0.6
2017-Apr-10 11:42N 70°32' E 018°41'1 4.3
2017-Apr-10 11:30N 70°32' E 018°43'2 4.1
2017-Apr-10 11:00N 70°33' E 018°48'2 3.6
2017-Apr-10 10:30N 70°33' E 018°53'2 3.9
2017-Apr-10 10:00N 70°32' E 018°59'0 0.9
2017-Apr-10 09:30N 70°32' E 018°60'2 3.7
2017-Apr-10 09:00N 70°33' E 018°54'2 4.5
2017-Apr-10 08:30N 70°33' E 018°48'2 4.5
2017-Apr-10 08:00N 70°31' E 018°43'2 3.8
2017-Apr-10 07:30N 70°30' E 018°46'2 3.4
2017-Apr-10 06:59N 70°29' E 018°51'2 4.0
2017-Apr-10 06:30N 70°31' E 018°55'2 4.1
2017-Apr-10 06:00N 70°32' E 018°59'2 4.1
2017-Apr-10 05:30N 70°33' E 019°05'2 4.1
2017-Apr-10 05:00N 70°33' E 019°11'2 3.9
2017-Apr-10 04:30N 70°32' E 019°05'2 4.1
2017-Apr-10 04:00N 70°31' E 018°60'2 4.2
2017-Apr-10 03:30N 70°30' E 018°54'0 0.8
2017-Apr-10 03:00N 70°30' E 018°55'1 2.5
2017-Apr-10 02:30N 70°32' E 018°55'1 2.6
2017-Apr-10 02:00N 70°33' E 018°52'2 3.8
2017-Apr-10 01:30N 70°31' E 018°48'2 3.7
2017-Apr-10 01:00N 70°30' E 018°50'2 4.1
2017-Apr-10 00:30N 70°30' E 018°56'2 4.0
2017-Apr-10 00:01N 70°31' E 019°01'2 4.0
2017-Apr-09 23:30N 70°32' E 019°07'1 2.7
2017-Apr-09 23:00N 70°33' E 019°08'2 4.3
2017-Apr-09 22:30N 70°32' E 019°02'2 4.3
2017-Apr-09 22:00N 70°33' E 018°56'2 3.9
2017-Apr-09 21:30N 70°32' E 018°51'1 3.0
2017-Apr-09 21:00N 70°31' E 018°47'2 3.8
2017-Apr-09 20:30N 70°31' E 018°53'2 3.8
2017-Apr-09 20:00N 70°31' E 018°59'2 3.9
2017-Apr-09 19:30N 70°32' E 019°03'2 3.2
2017-Apr-09 19:00N 70°33' E 019°08'1 1.4
2017-Apr-09 18:31N 70°33' E 019°07'1 1.0
2017-Apr-09 18:00N 70°33' E 019°06'1 2.4
2017-Apr-09 17:30N 70°34' E 019°08'2 3.0
2017-Apr-09 17:00N 70°32' E 019°08'1 1.5
2017-Apr-09 16:30N 70°33' E 019°09'1 2.1
2017-Apr-09 16:00N 70°32' E 019°07'1 1.8
2017-Apr-09 15:30N 70°33' E 019°09'1 1.4
2017-Apr-09 15:00N 70°32' E 019°07'4 3.7
2017-Apr-09 14:00N 70°33' E 018°57'1 2.1
2017-Apr-09 13:29N 70°34' E 018°59'2 4.1
2017-Apr-09 13:01N 70°34' E 019°05'2 4.3
2017-Apr-09 12:30N 70°33' E 019°11'0 0.4
2017-Apr-09 12:00N 70°33' E 019°10'1 1.2
2017-Apr-09 11:30N 70°33' E 019°12'2 4.8
2017-Apr-09 11:00N 70°33' E 019°05'1 2.8
2017-Apr-09 10:30N 70°33' E 019°00'2 4.3
2017-Apr-09 10:00N 70°33' E 018°54'1 1.5
2017-Apr-09 09:30N 70°33' E 018°52'2 4.4
2017-Apr-09 09:00N 70°33' E 018°58'2 4.0
2017-Apr-09 08:30N 70°32' E 019°04'2 3.6
2017-Apr-09 08:00N 70°31' E 019°01'2 4.4
2017-Apr-09 07:30N 70°30' E 018°54'2 4.5
2017-Apr-09 07:00N 70°30' E 018°47'1 3.0
2017-Apr-09 06:30N 70°30' E 018°52'2 3.3
2017-Apr-09 06:00N 70°31' E 018°56'2 4.2
2017-Apr-09 05:30N 70°31' E 019°02'1 2.5
2017-Apr-09 05:01N 70°33' E 019°00'2 3.8
2017-Apr-09 04:30N 70°33' E 018°55'2 4.1
2017-Apr-09 04:00N 70°33' E 018°49'1 2.5
2017-Apr-09 03:30N 70°33' E 018°52'2 4.3
2017-Apr-09 03:00N 70°33' E 018°59'1 2.2
2017-Apr-09 02:30N 70°33' E 018°56'3 0.7
2017-Apr-08 22:19N 70°36' E 018°51'1 3.8
2017-Apr-08 22:00N 70°35' E 018°54'2 3.0
2017-Apr-08 21:30N 70°34' E 018°53'2 4.2
2017-Apr-08 21:00N 70°34' E 018°47'2 4.3
2017-Apr-08 20:30N 70°32' E 018°42'2 3.0
2017-Apr-08 19:51N 70°31' E 018°38'2 6.5
2017-Apr-08 19:30N 70°32' E 018°44'1 2.6
2017-Apr-08 19:01N 70°32' E 018°47'0 0.8
2017-Apr-08 18:30N 70°33' E 018°47'2 4.4
2017-Apr-08 17:59N 70°31' E 018°42'1 1.3
2017-Apr-08 17:30N 70°32' E 018°43'2 3.9
2017-Apr-08 17:00N 70°33' E 018°48'2 4.6
2017-Apr-08 16:30N 70°33' E 018°54'1 2.6
2017-Apr-08 16:00N 70°32' E 018°52'4 6.9
2017-Apr-08 15:30N 70°32' E 018°42'  
2017-Apr-04 21:15N 69°58' E 016°57'2 7.4
2017-Apr-04 21:00N 69°56' E 016°57'1 2.9
2017-Apr-04 20:30N 69°56' E 017°01'2 4.0
2017-Apr-04 20:00N 69°56' E 017°07'2 4.4
2017-Apr-04 19:29N 69°56' E 017°13'1 1.6
2017-Apr-04 19:00N 69°57' E 017°14'2 3.7
2017-Apr-04 18:30N 69°57' E 017°09'2 3.7
2017-Apr-04 18:00N 69°57' E 017°04'1 2.5
2017-Apr-04 17:31N 69°58' E 017°01'2 4.3
2017-Apr-04 17:00N 69°57' E 017°07'2 4.4
2017-Apr-04 16:30N 69°57' E 017°13'2 4.2
2017-Apr-04 16:00N 69°57' E 017°19'1 2.3
2017-Apr-04 15:30N 69°57' E 017°22'4 7.2
2017-Apr-04 15:00N 69°56' E 017°11'3 5.8
2017-Apr-04 14:30N 69°59' E 017°06'1 0.6
2017-Apr-04 12:45N 69°59' E 017°03'1 4.9
2017-Apr-04 12:30N 69°58' E 017°06'2 4.6
2017-Apr-04 11:59N 69°57' E 017°12'2 3.4
2017-Apr-04 11:30N 69°56' E 017°16'2 4.4
2017-Apr-04 11:00N 69°57' E 017°10'2 4.3
2017-Apr-04 10:30N 69°58' E 017°05'1 2.1
2017-Apr-04 09:59N 69°59' E 017°05'2 4.6
2017-Apr-04 09:30N 69°58' E 017°09'2 4.4
2017-Apr-04 09:00N 69°57' E 017°14'2 3.2
2017-Apr-04 08:31N 69°56' E 017°19'2 4.1
2017-Apr-04 08:00N 69°57' E 017°13'2 3.5
2017-Apr-04 07:30N 69°57' E 017°08'2 4.1
2017-Apr-04 07:00N 69°57' E 017°14'2 3.9
2017-Apr-04 06:30N 69°56' E 017°19'2 3.5
2017-Apr-04 05:59N 69°55' E 017°15'2 3.8
2017-Apr-04 05:30N 69°55' E 017°09'2 3.6
2017-Apr-04 05:00N 69°55' E 017°04'2 3.9
2017-Apr-04 04:30N 69°55' E 016°58'2 3.9
2017-Apr-04 04:00N 69°54' E 016°53'2 4.3
2017-Apr-04 03:30N 69°53' E 016°47'2 2.0
2017-Apr-04 02:27N 69°54' E 016°42'1 2.9
2017-Apr-04 02:00N 69°54' E 016°45'2 4.3
2017-Apr-04 01:30N 69°55' E 016°51'2 4.2
2017-Apr-04 01:00N 69°55' E 016°58'2 4.4
2017-Apr-04 00:30N 69°55' E 017°04'2 4.3
2017-Apr-04 00:00N 69°55' E 017°10'2 3.2
2017-Apr-03 23:30N 69°55' E 017°15'2 4.1
2017-Apr-03 23:00N 69°55' E 017°09'2 4.0
2017-Apr-03 22:30N 69°55' E 017°03'2 3.6
2017-Apr-03 22:00N 69°54' E 016°58'2 4.2
2017-Apr-03 21:30N 69°54' E 017°04'2 4.0
2017-Apr-03 21:00N 69°54' E 017°10'2 3.9
2017-Apr-03 20:30N 69°54' E 017°16'1 3.0
2017-Apr-03 20:01N 69°54' E 017°11'1 2.3
2017-Apr-03 19:29N 69°55' E 017°09'2 3.9
2017-Apr-03 19:00N 69°55' E 017°04'2 4.3
2017-Apr-03 18:30N 69°55' E 016°57'2 3.9
2017-Apr-03 18:00N 69°56' E 016°52'1 0.7
2017-Apr-03 16:42N 69°56' E 016°50'1 4.7
2017-Apr-03 16:29N 69°56' E 016°52'2 4.5
2017-Apr-03 16:00N 69°55' E 016°58'2 3.9
2017-Apr-03 15:30N 69°55' E 017°04'2 3.9
2017-Apr-03 15:00N 69°56' E 017°10'2 4.0
2017-Apr-03 14:30N 69°56' E 017°15'3 2.9
2017-Apr-03 13:30N 69°58' E 017°23'4 8.4
2017-Apr-03 13:00N 69°55' E 017°12'2 3.5
2017-Apr-03 12:30N 69°55' E 017°07'2 4.0
2017-Apr-03 12:00N 69°55' E 017°02'2 4.1
2017-Apr-03 11:30N 69°55' E 016°56'2 4.3
2017-Apr-03 11:00N 69°56' E 016°50'0 0.3
2017-Apr-03 09:38N 69°56' E 016°49'1 3.9
2017-Apr-03 09:30N 69°56' E 016°51'2 4.1
2017-Apr-03 09:00N 69°56' E 016°57'2 4.0
2017-Apr-03 08:30N 69°57' E 017°02'2 4.3
2017-Apr-03 08:00N 69°57' E 017°08'2 4.1
2017-Apr-03 07:29N 69°56' E 017°14'2 3.2
2017-Apr-03 07:01N 69°58' E 017°16'1 2.4
2017-Apr-03 06:30N 69°57' E 017°12'1 1.1
2017-Apr-03 06:00N 69°58' E 017°13'2 3.5
2017-Apr-03 05:30N 69°58' E 017°08'2 4.0
2017-Apr-03 05:00N 69°57' E 017°02'2 3.8
2017-Apr-03 04:30N 69°57' E 017°08'2 4.1
2017-Apr-03 04:01N 69°58' E 017°13'1 2.0
2017-Apr-03 03:30N 69°58' E 017°15'  

Dump ship's entire track history